sensor_id;sensor_type;location;lat;lon;timestamp;P1;durP1;ratioP1;P2;durP2;ratioP2
13202;SDS011;6666;51.626;7.530;2023-04-24T00:01:53;2.70;;;0.80;;
13202;SDS011;6666;51.626;7.530;2023-04-24T00:04:24;0.70;;;0.50;;
13202;SDS011;6666;51.626;7.530;2023-04-24T00:06:53;1.30;;;0.60;;
13202;SDS011;6666;51.626;7.530;2023-04-24T00:09:23;1.05;;;0.52;;
13202;SDS011;6666;51.626;7.530;2023-04-24T00:11:52;0.60;;;0.40;;
13202;SDS011;6666;51.626;7.530;2023-04-24T00:14:21;1.20;;;0.70;;
13202;SDS011;6666;51.626;7.530;2023-04-24T00:16:49;1.10;;;0.70;;
13202;SDS011;6666;51.626;7.530;2023-04-24T00:19:18;3.33;;;0.70;;
13202;SDS011;6666;51.626;7.530;2023-04-24T00:21:49;2.43;;;1.00;;
13202;SDS011;6666;51.626;7.530;2023-04-24T00:24:17;2.53;;;1.10;;
13202;SDS011;6666;51.626;7.530;2023-04-24T00:26:46;2.10;;;0.70;;
13202;SDS011;6666;51.626;7.530;2023-04-24T00:29:14;1.30;;;0.70;;
13202;SDS011;6666;51.626;7.530;2023-04-24T00:31:42;2.25;;;1.00;;
13202;SDS011;6666;51.626;7.530;2023-04-24T00:34:10;2.58;;;0.90;;
13202;SDS011;6666;51.626;7.530;2023-04-24T00:36:39;2.28;;;0.90;;
13202;SDS011;6666;51.626;7.530;2023-04-24T00:39:08;0.70;;;0.60;;
13202;SDS011;6666;51.626;7.530;2023-04-24T00:41:37;2.50;;;0.70;;
13202;SDS011;6666;51.626;7.530;2023-04-24T00:44:05;0.98;;;0.70;;
13202;SDS011;6666;51.626;7.530;2023-04-24T00:46:34;1.90;;;0.70;;
13202;SDS011;6666;51.626;7.530;2023-04-24T00:49:03;1.70;;;0.80;;
13202;SDS011;6666;51.626;7.530;2023-04-24T00:51:32;2.00;;;1.00;;
13202;SDS011;6666;51.626;7.530;2023-04-24T00:54:01;2.85;;;1.20;;
13202;SDS011;6666;51.626;7.530;2023-04-24T00:56:31;2.40;;;1.10;;
13202;SDS011;6666;51.626;7.530;2023-04-24T00:58:59;2.57;;;1.10;;
13202;SDS011;6666;51.626;7.530;2023-04-24T01:01:27;1.48;;;0.93;;
13202;SDS011;6666;51.626;7.530;2023-04-24T01:03:56;1.80;;;0.90;;
13202;SDS011;6666;51.626;7.530;2023-04-24T01:06:27;4.40;;;1.30;;
13202;SDS011;6666;51.626;7.530;2023-04-24T01:08:57;1.50;;;1.13;;
13202;SDS011;6666;51.626;7.530;2023-04-24T01:11:29;1.92;;;0.90;;
13202;SDS011;6666;51.626;7.530;2023-04-24T01:13:59;2.40;;;1.05;;
13202;SDS011;6666;51.626;7.530;2023-04-24T01:16:27;1.70;;;0.80;;
13202;SDS011;6666;51.626;7.530;2023-04-24T01:18:56;1.10;;;0.80;;
13202;SDS011;6666;51.626;7.530;2023-04-24T01:21:25;1.00;;;0.90;;
13202;SDS011;6666;51.626;7.530;2023-04-24T01:23:57;1.40;;;0.93;;
13202;SDS011;6666;51.626;7.530;2023-04-24T01:26:25;1.90;;;0.90;;
13202;SDS011;6666;51.626;7.530;2023-04-24T01:28:54;1.40;;;0.77;;
13202;SDS011;6666;51.626;7.530;2023-04-24T01:31:23;0.90;;;0.80;;
13202;SDS011;6666;51.626;7.530;2023-04-24T01:33:51;1.50;;;0.80;;
13202;SDS011;6666;51.626;7.530;2023-04-24T01:36:21;1.30;;;0.85;;
13202;SDS011;6666;51.626;7.530;2023-04-24T01:38:52;1.00;;;0.73;;
13202;SDS011;6666;51.626;7.530;2023-04-24T01:41:22;1.50;;;1.10;;
13202;SDS011;6666;51.626;7.530;2023-04-24T01:43:52;2.30;;;1.00;;
13202;SDS011;6666;51.626;7.530;2023-04-24T01:46:21;1.30;;;1.00;;
13202;SDS011;6666;51.626;7.530;2023-04-24T01:48:49;1.23;;;0.90;;
13202;SDS011;6666;51.626;7.530;2023-04-24T01:51:19;2.20;;;1.00;;
13202;SDS011;6666;51.626;7.530;2023-04-24T01:53:47;1.50;;;1.00;;
13202;SDS011;6666;51.626;7.530;2023-04-24T01:56:16;4.65;;;1.00;;
13202;SDS011;6666;51.626;7.530;2023-04-24T01:58:45;1.40;;;1.10;;
13202;SDS011;6666;51.626;7.530;2023-04-24T02:01:14;3.00;;;0.90;;
13202;SDS011;6666;51.626;7.530;2023-04-24T02:03:46;1.40;;;0.90;;
13202;SDS011;6666;51.626;7.530;2023-04-24T02:06:15;2.10;;;1.00;;
13202;SDS011;6666;51.626;7.530;2023-04-24T02:08:43;1.50;;;1.27;;
13202;SDS011;6666;51.626;7.530;2023-04-24T02:11:11;1.70;;;1.20;;
13202;SDS011;6666;51.626;7.530;2023-04-24T02:13:39;2.83;;;1.10;;
13202;SDS011;6666;51.626;7.530;2023-04-24T02:16:09;1.30;;;1.00;;
13202;SDS011;6666;51.626;7.530;2023-04-24T02:18:37;1.20;;;1.00;;
13202;SDS011;6666;51.626;7.530;2023-04-24T02:21:05;2.20;;;1.20;;
13202;SDS011;6666;51.626;7.530;2023-04-24T02:23:34;1.92;;;1.30;;
13202;SDS011;6666;51.626;7.530;2023-04-24T02:26:04;1.42;;;1.00;;
13202;SDS011;6666;51.626;7.530;2023-04-24T02:28:32;2.53;;;1.27;;
13202;SDS011;6666;51.626;7.530;2023-04-24T02:31:00;1.83;;;1.20;;
13202;SDS011;6666;51.626;7.530;2023-04-24T02:33:30;2.60;;;1.40;;
13202;SDS011;6666;51.626;7.530;2023-04-24T02:35:58;1.92;;;1.42;;
13202;SDS011;6666;51.626;7.530;2023-04-24T02:38:27;3.50;;;1.40;;
13202;SDS011;6666;51.626;7.530;2023-04-24T02:40:55;1.40;;;1.30;;
13202;SDS011;6666;51.626;7.530;2023-04-24T02:43:25;2.40;;;1.70;;
13202;SDS011;6666;51.626;7.530;2023-04-24T02:45:53;2.90;;;1.60;;
13202;SDS011;6666;51.626;7.530;2023-04-24T02:48:21;2.38;;;1.20;;
13202;SDS011;6666;51.626;7.530;2023-04-24T02:50:51;2.40;;;1.80;;
13202;SDS011;6666;51.626;7.530;2023-04-24T02:53:19;3.35;;;2.05;;
13202;SDS011;6666;51.626;7.530;2023-04-24T02:55:48;3.35;;;2.45;;
13202;SDS011;6666;51.626;7.530;2023-04-24T02:58:16;4.28;;;2.38;;
13202;SDS011;6666;51.626;7.530;2023-04-24T03:00:46;4.00;;;2.80;;
13202;SDS011;6666;51.626;7.530;2023-04-24T03:03:14;7.10;;;2.90;;
13202;SDS011;6666;51.626;7.530;2023-04-24T03:05:42;4.85;;;2.83;;
13202;SDS011;6666;51.626;7.530;2023-04-24T03:08:12;4.75;;;3.00;;
13202;SDS011;6666;51.626;7.530;2023-04-24T03:10:41;5.87;;;2.93;;
13202;SDS011;6666;51.626;7.530;2023-04-24T03:13:15;7.60;;;3.20;;
13202;SDS011;6666;51.626;7.530;2023-04-24T03:15:44;7.20;;;3.60;;
13202;SDS011;6666;51.626;7.530;2023-04-24T03:18:13;5.53;;;3.63;;
13202;SDS011;6666;51.626;7.530;2023-04-24T03:20:42;5.57;;;3.65;;
13202;SDS011;6666;51.626;7.530;2023-04-24T03:23:11;6.38;;;3.45;;
13202;SDS011;6666;51.626;7.530;2023-04-24T03:25:39;5.15;;;3.53;;
13202;SDS011;6666;51.626;7.530;2023-04-24T03:28:11;7.45;;;3.97;;
13202;SDS011;6666;51.626;7.530;2023-04-24T03:30:46;5.47;;;3.83;;
13202;SDS011;6666;51.626;7.530;2023-04-24T03:33:15;7.40;;;4.28;;
13202;SDS011;6666;51.626;7.530;2023-04-24T03:35:53;6.30;;;3.95;;
13202;SDS011;6666;51.626;7.530;2023-04-24T03:38:23;7.82;;;4.22;;
13202;SDS011;6666;51.626;7.530;2023-04-24T03:41:15;7.47;;;3.90;;
13202;SDS011;6666;51.626;7.530;2023-04-24T03:43:49;7.60;;;4.30;;
13202;SDS011;6666;51.626;7.530;2023-04-24T03:46:17;7.93;;;3.90;;
13202;SDS011;6666;51.626;7.530;2023-04-24T03:48:55;6.70;;;4.97;;
13202;SDS011;6666;51.626;7.530;2023-04-24T03:51:28;5.80;;;4.07;;
13202;SDS011;6666;51.626;7.530;2023-04-24T03:54:11;8.85;;;4.63;;
13202;SDS011;6666;51.626;7.530;2023-04-24T03:56:40;9.82;;;4.88;;
13202;SDS011;6666;51.626;7.530;2023-04-24T03:59:08;6.47;;;4.32;;
13202;SDS011;6666;51.626;7.530;2023-04-24T04:01:39;8.27;;;4.40;;
13202;SDS011;6666;51.626;7.530;2023-04-24T04:04:14;7.50;;;4.90;;
13202;SDS011;6666;51.626;7.530;2023-04-24T04:06:44;9.07;;;4.97;;
13202;SDS011;6666;51.626;7.530;2023-04-24T04:09:14;6.70;;;5.00;;
13202;SDS011;6666;51.626;7.530;2023-04-24T04:11:42;7.90;;;4.82;;
13202;SDS011;6666;51.626;7.530;2023-04-24T04:14:11;9.27;;;5.30;;
13202;SDS011;6666;51.626;7.530;2023-04-24T04:16:43;6.88;;;5.07;;
13202;SDS011;6666;51.626;7.530;2023-04-24T04:19:12;10.90;;;5.38;;
13202;SDS011;6666;51.626;7.530;2023-04-24T04:21:40;7.93;;;5.20;;
13202;SDS011;6666;51.626;7.530;2023-04-24T04:24:19;9.48;;;6.20;;
13202;SDS011;6666;51.626;7.530;2023-04-24T04:26:49;8.20;;;5.75;;
13202;SDS011;6666;51.626;7.530;2023-04-24T04:29:24;11.13;;;6.68;;
13202;SDS011;6666;51.626;7.530;2023-04-24T04:31:53;7.40;;;5.50;;
13202;SDS011;6666;51.626;7.530;2023-04-24T04:34:21;11.68;;;6.15;;
13202;SDS011;6666;51.626;7.530;2023-04-24T04:36:51;9.18;;;5.85;;
13202;SDS011;6666;51.626;7.530;2023-04-24T04:39:41;9.82;;;5.40;;
13202;SDS011;6666;51.626;7.530;2023-04-24T04:42:22;10.73;;;5.85;;
13202;SDS011;6666;51.626;7.530;2023-04-24T04:44:50;8.88;;;5.35;;
13202;SDS011;6666;51.626;7.530;2023-04-24T04:47:25;11.63;;;5.72;;
13202;SDS011;6666;51.626;7.530;2023-04-24T04:49:56;12.25;;;6.20;;
13202;SDS011;6666;51.626;7.530;2023-04-24T04:52:26;10.15;;;5.60;;
13202;SDS011;6666;51.626;7.530;2023-04-24T04:55:08;7.55;;;5.25;;
13202;SDS011;6666;51.626;7.530;2023-04-24T04:58:06;9.15;;;6.20;;
13202;SDS011;6666;51.626;7.530;2023-04-24T05:00:34;11.82;;;6.20;;
13202;SDS011;6666;51.626;7.530;2023-04-24T05:03:12;10.05;;;6.10;;
13202;SDS011;6666;51.626;7.530;2023-04-24T05:05:44;11.77;;;6.43;;
13202;SDS011;6666;51.626;7.530;2023-04-24T05:08:14;10.82;;;6.93;;
13202;SDS011;6666;51.626;7.530;2023-04-24T05:10:54;9.63;;;6.50;;
13202;SDS011;6666;51.626;7.530;2023-04-24T05:13:24;9.63;;;6.50;;
13202;SDS011;6666;51.626;7.530;2023-04-24T05:16:19;12.25;;;7.05;;
13202;SDS011;6666;51.626;7.530;2023-04-24T05:18:50;10.88;;;6.07;;
13202;SDS011;6666;51.626;7.530;2023-04-24T05:21:22;11.07;;;6.00;;
13202;SDS011;6666;51.626;7.530;2023-04-24T05:23:51;13.82;;;6.78;;
13202;SDS011;6666;51.626;7.530;2023-04-24T05:26:35;13.60;;;7.03;;
13202;SDS011;6666;51.626;7.530;2023-04-24T05:29:03;10.13;;;5.90;;
13202;SDS011;6666;51.626;7.530;2023-04-24T05:31:32;10.25;;;6.28;;
13202;SDS011;6666;51.626;7.530;2023-04-24T05:34:00;7.87;;;5.50;;
13202;SDS011;6666;51.626;7.530;2023-04-24T05:36:28;14.10;;;6.15;;
13202;SDS011;6666;51.626;7.530;2023-04-24T05:38:57;8.07;;;5.32;;
13202;SDS011;6666;51.626;7.530;2023-04-24T05:41:25;13.27;;;6.20;;
13202;SDS011;6666;51.626;7.530;2023-04-24T05:43:54;10.57;;;6.00;;
13202;SDS011;6666;51.626;7.530;2023-04-24T05:46:23;10.27;;;6.30;;
13202;SDS011;6666;51.626;7.530;2023-04-24T05:48:51;9.25;;;5.40;;
13202;SDS011;6666;51.626;7.530;2023-04-24T05:51:19;11.30;;;6.00;;
13202;SDS011;6666;51.626;7.530;2023-04-24T05:53:48;6.97;;;4.97;;
13202;SDS011;6666;51.626;7.530;2023-04-24T05:56:16;8.15;;;4.93;;
13202;SDS011;6666;51.626;7.530;2023-04-24T05:58:45;8.13;;;4.93;;
13202;SDS011;6666;51.626;7.530;2023-04-24T06:01:15;8.63;;;5.45;;
13202;SDS011;6666;51.626;7.530;2023-04-24T06:03:48;11.25;;;5.22;;
13202;SDS011;6666;51.626;7.530;2023-04-24T06:06:16;7.88;;;4.88;;
13202;SDS011;6666;51.626;7.530;2023-04-24T06:08:45;6.30;;;4.35;;
13202;SDS011;6666;51.626;7.530;2023-04-24T06:11:14;8.60;;;4.35;;
13202;SDS011;6666;51.626;7.530;2023-04-24T06:13:42;5.20;;;3.50;;
13202;SDS011;6666;51.626;7.530;2023-04-24T06:16:31;6.43;;;4.10;;
13202;SDS011;6666;51.626;7.530;2023-04-24T06:19:05;6.00;;;3.60;;
13202;SDS011;6666;51.626;7.530;2023-04-24T06:21:34;7.35;;;3.72;;
13202;SDS011;6666;51.626;7.530;2023-04-24T06:24:02;8.20;;;4.00;;
13202;SDS011;6666;51.626;7.530;2023-04-24T06:26:31;4.50;;;3.47;;
13202;SDS011;6666;51.626;7.530;2023-04-24T06:28:59;7.60;;;4.33;;
13202;SDS011;6666;51.626;7.530;2023-04-24T06:31:28;6.70;;;4.83;;
13202;SDS011;6666;51.626;7.530;2023-04-24T06:33:57;8.13;;;4.28;;
13202;SDS011;6666;51.626;7.530;2023-04-24T06:36:26;6.88;;;4.63;;
13202;SDS011;6666;51.626;7.530;2023-04-24T06:38:54;7.45;;;3.90;;
13202;SDS011;6666;51.626;7.530;2023-04-24T06:41:23;8.85;;;5.30;;
13202;SDS011;6666;51.626;7.530;2023-04-24T06:43:52;7.78;;;4.35;;
13202;SDS011;6666;51.626;7.530;2023-04-24T06:46:20;7.38;;;4.60;;
13202;SDS011;6666;51.626;7.530;2023-04-24T06:48:50;8.90;;;4.90;;
13202;SDS011;6666;51.626;7.530;2023-04-24T06:51:19;7.63;;;4.80;;
13202;SDS011;6666;51.626;7.530;2023-04-24T06:53:47;5.57;;;4.20;;
13202;SDS011;6666;51.626;7.530;2023-04-24T06:56:16;7.13;;;3.75;;
13202;SDS011;6666;51.626;7.530;2023-04-24T06:58:44;6.05;;;3.90;;
13202;SDS011;6666;51.626;7.530;2023-04-24T07:01:12;5.00;;;3.50;;
13202;SDS011;6666;51.626;7.530;2023-04-24T07:03:41;7.18;;;3.60;;
13202;SDS011;6666;51.626;7.530;2023-04-24T07:06:09;4.60;;;3.58;;
13202;SDS011;6666;51.626;7.530;2023-04-24T07:08:40;5.30;;;3.20;;
13202;SDS011;6666;51.626;7.530;2023-04-24T07:11:09;5.38;;;3.30;;
13202;SDS011;6666;51.626;7.530;2023-04-24T07:13:38;4.07;;;3.20;;
13202;SDS011;6666;51.626;7.530;2023-04-24T07:16:08;4.28;;;2.90;;
13202;SDS011;6666;51.626;7.530;2023-04-24T07:18:38;4.65;;;3.05;;
13202;SDS011;6666;51.626;7.530;2023-04-24T07:21:06;8.38;;;2.78;;
13202;SDS011;6666;51.626;7.530;2023-04-24T07:23:34;3.05;;;2.55;;
13202;SDS011;6666;51.626;7.530;2023-04-24T07:26:04;4.05;;;2.83;;
13202;SDS011;6666;51.626;7.530;2023-04-24T07:28:32;6.63;;;2.73;;
13202;SDS011;6666;51.626;7.530;2023-04-24T07:31:00;4.18;;;2.92;;
13202;SDS011;6666;51.626;7.530;2023-04-24T07:33:30;3.03;;;2.35;;
13202;SDS011;6666;51.626;7.530;2023-04-24T07:35:58;3.70;;;2.70;;
13202;SDS011;6666;51.626;7.530;2023-04-24T07:38:27;3.20;;;2.80;;
13202;SDS011;6666;51.626;7.530;2023-04-24T07:40:57;2.83;;;2.38;;
13202;SDS011;6666;51.626;7.530;2023-04-24T07:43:27;3.90;;;2.70;;
13202;SDS011;6666;51.626;7.530;2023-04-24T07:45:55;2.53;;;2.22;;
13202;SDS011;6666;51.626;7.530;2023-04-24T07:48:23;2.47;;;2.22;;
13202;SDS011;6666;51.626;7.530;2023-04-24T07:50:52;3.15;;;2.30;;
13202;SDS011;6666;51.626;7.530;2023-04-24T07:53:21;4.00;;;2.42;;
13202;SDS011;6666;51.626;7.530;2023-04-24T07:55:49;2.00;;;1.80;;
13202;SDS011;6666;51.626;7.530;2023-04-24T07:58:17;4.20;;;2.20;;
13202;SDS011;6666;51.626;7.530;2023-04-24T08:00:47;3.47;;;2.30;;
13202;SDS011;6666;51.626;7.530;2023-04-24T08:03:15;1.95;;;1.75;;
13202;SDS011;6666;51.626;7.530;2023-04-24T08:05:46;4.20;;;1.30;;
13202;SDS011;6666;51.626;7.530;2023-04-24T08:08:14;3.00;;;1.20;;
13202;SDS011;6666;51.626;7.530;2023-04-24T08:10:42;2.60;;;1.20;;
13202;SDS011;6666;51.626;7.530;2023-04-24T08:13:10;3.60;;;1.40;;
13202;SDS011;6666;51.626;7.530;2023-04-24T08:15:39;2.90;;;1.30;;
13202;SDS011;6666;51.626;7.530;2023-04-24T08:18:09;4.22;;;1.35;;
13202;SDS011;6666;51.626;7.530;2023-04-24T08:20:38;1.42;;;1.33;;
13202;SDS011;6666;51.626;7.530;2023-04-24T08:23:07;4.60;;;1.60;;
13202;SDS011;6666;51.626;7.530;2023-04-24T08:25:35;1.90;;;1.40;;
13202;SDS011;6666;51.626;7.530;2023-04-24T08:28:05;3.40;;;1.70;;
13202;SDS011;6666;51.626;7.530;2023-04-24T08:30:34;1.45;;;1.33;;
13202;SDS011;6666;51.626;7.530;2023-04-24T08:33:02;1.50;;;1.10;;
13202;SDS011;6666;51.626;7.530;2023-04-24T08:35:31;1.80;;;1.10;;
13202;SDS011;6666;51.626;7.530;2023-04-24T08:37:59;1.70;;;1.05;;
13202;SDS011;6666;51.626;7.530;2023-04-24T08:40:28;0.80;;;0.65;;
13202;SDS011;6666;51.626;7.530;2023-04-24T08:42:57;1.60;;;0.70;;
13202;SDS011;6666;51.626;7.530;2023-04-24T08:45:27;0.90;;;0.70;;
13202;SDS011;6666;51.626;7.530;2023-04-24T08:47:55;0.80;;;0.50;;
13202;SDS011;6666;51.626;7.530;2023-04-24T08:50:26;0.80;;;0.60;;
13202;SDS011;6666;51.626;7.530;2023-04-24T08:52:55;1.55;;;0.70;;
13202;SDS011;6666;51.626;7.530;2023-04-24T08:55:24;0.70;;;0.60;;
13202;SDS011;6666;51.626;7.530;2023-04-24T08:57:53;0.82;;;0.70;;
13202;SDS011;6666;51.626;7.530;2023-04-24T09:00:22;0.80;;;0.60;;
13202;SDS011;6666;51.626;7.530;2023-04-24T09:02:52;1.90;;;0.60;;
13202;SDS011;6666;51.626;7.530;2023-04-24T09:05:21;1.30;;;0.80;;
13202;SDS011;6666;51.626;7.530;2023-04-24T09:07:54;0.80;;;0.60;;
13202;SDS011;6666;51.626;7.530;2023-04-24T09:10:24;1.00;;;0.60;;
13202;SDS011;6666;51.626;7.530;2023-04-24T09:12:54;0.75;;;0.60;;
13202;SDS011;6666;51.626;7.530;2023-04-24T09:15:24;1.48;;;0.65;;
13202;SDS011;6666;51.626;7.530;2023-04-24T09:17:53;0.90;;;0.63;;
13202;SDS011;6666;51.626;7.530;2023-04-24T09:20:21;1.90;;;0.60;;
13202;SDS011;6666;51.626;7.530;2023-04-24T09:22:52;0.98;;;0.70;;
13202;SDS011;6666;51.626;7.530;2023-04-24T09:25:24;0.90;;;0.70;;
13202;SDS011;6666;51.626;7.530;2023-04-24T09:28:00;1.40;;;0.75;;
13202;SDS011;6666;51.626;7.530;2023-04-24T09:30:29;3.60;;;1.00;;
13202;SDS011;6666;51.626;7.530;2023-04-24T09:35:48;0.90;;;0.80;;
13202;SDS011;6666;51.626;7.530;2023-04-24T09:38:19;0.90;;;0.70;;
13202;SDS011;6666;51.626;7.530;2023-04-24T09:41:00;3.20;;;0.80;;
13202;SDS011;6666;51.626;7.530;2023-04-24T09:43:29;2.15;;;0.90;;
13202;SDS011;6666;51.626;7.530;2023-04-24T09:45:58;2.20;;;1.23;;
13202;SDS011;6666;51.626;7.530;2023-04-24T09:48:31;1.70;;;0.80;;
13202;SDS011;6666;51.626;7.530;2023-04-24T09:51:00;1.42;;;1.33;;
13202;SDS011;6666;51.626;7.530;2023-04-24T09:53:30;1.00;;;0.90;;
13202;SDS011;6666;51.626;7.530;2023-04-24T09:56:06;2.47;;;1.20;;
13202;SDS011;6666;51.626;7.530;2023-04-24T09:58:35;3.10;;;1.50;;
13202;SDS011;6666;51.626;7.530;2023-04-24T10:01:03;4.40;;;1.65;;
13202;SDS011;6666;51.626;7.530;2023-04-24T10:03:32;2.30;;;1.70;;
13202;SDS011;6666;51.626;7.530;2023-04-24T10:06:02;4.30;;;1.92;;
13202;SDS011;6666;51.626;7.530;2023-04-24T10:08:35;2.10;;;1.90;;
13202;SDS011;6666;51.626;7.530;2023-04-24T10:11:05;2.55;;;2.00;;
13202;SDS011;6666;51.626;7.530;2023-04-24T10:13:35;2.60;;;1.80;;
13202;SDS011;6666;51.626;7.530;2023-04-24T10:16:04;3.60;;;2.03;;
13202;SDS011;6666;51.626;7.530;2023-04-24T10:18:33;3.07;;;2.27;;
13202;SDS011;6666;51.626;7.530;2023-04-24T10:21:03;3.00;;;1.83;;
13202;SDS011;6666;51.626;7.530;2023-04-24T10:23:32;2.10;;;1.90;;
13202;SDS011;6666;51.626;7.530;2023-04-24T10:26:01;4.30;;;2.30;;
13202;SDS011;6666;51.626;7.530;2023-04-24T10:28:31;3.40;;;2.53;;
13202;SDS011;6666;51.626;7.530;2023-04-24T10:31:01;6.20;;;2.90;;
13202;SDS011;6666;51.626;7.530;2023-04-24T10:33:30;4.30;;;3.10;;
13202;SDS011;6666;51.626;7.530;2023-04-24T10:35:59;4.20;;;2.60;;
13202;SDS011;6666;51.626;7.530;2023-04-24T10:38:28;3.95;;;2.40;;
13202;SDS011;6666;51.626;7.530;2023-04-24T10:41:06;4.03;;;2.40;;
13202;SDS011;6666;51.626;7.530;2023-04-24T10:43:37;4.85;;;2.60;;
13202;SDS011;6666;51.626;7.530;2023-04-24T10:46:07;2.83;;;1.87;;
13202;SDS011;6666;51.626;7.530;2023-04-24T10:48:41;3.50;;;2.30;;
13202;SDS011;6666;51.626;7.530;2023-04-24T10:51:11;4.82;;;2.00;;
13202;SDS011;6666;51.626;7.530;2023-04-24T10:53:40;2.10;;;1.90;;
13202;SDS011;6666;51.626;7.530;2023-04-24T10:56:08;3.50;;;2.00;;
13202;SDS011;6666;51.626;7.530;2023-04-24T10:58:39;3.53;;;2.00;;
13202;SDS011;6666;51.626;7.530;2023-04-24T11:01:22;2.80;;;2.15;;
13202;SDS011;6666;51.626;7.530;2023-04-24T11:03:54;3.63;;;2.15;;
13202;SDS011;6666;51.626;7.530;2023-04-24T11:06:29;4.25;;;2.60;;
13202;SDS011;6666;51.626;7.530;2023-04-24T11:09:01;6.97;;;2.83;;
13202;SDS011;6666;51.626;7.530;2023-04-24T11:11:33;4.60;;;3.00;;
13202;SDS011;6666;51.626;7.530;2023-04-24T11:14:06;4.00;;;2.90;;
13202;SDS011;6666;51.626;7.530;2023-04-24T11:16:37;3.60;;;3.05;;
13202;SDS011;6666;51.626;7.530;2023-04-24T11:19:17;3.47;;;3.00;;
13202;SDS011;6666;51.626;7.530;2023-04-24T11:21:48;6.00;;;2.53;;
13202;SDS011;6666;51.626;7.530;2023-04-24T11:24:29;5.28;;;2.60;;
13202;SDS011;6666;51.626;7.530;2023-04-24T11:26:59;4.50;;;2.95;;
13202;SDS011;6666;51.626;7.530;2023-04-24T11:29:41;7.50;;;3.30;;
13202;SDS011;6666;51.626;7.530;2023-04-24T11:32:14;6.00;;;2.60;;
13202;SDS011;6666;51.626;7.530;2023-04-24T11:34:51;7.65;;;3.15;;
13202;SDS011;6666;51.626;7.530;2023-04-24T11:37:21;10.23;;;2.70;;
13202;SDS011;6666;51.626;7.530;2023-04-24T11:39:51;7.88;;;2.67;;
13202;SDS011;6666;51.626;7.530;2023-04-24T11:42:21;7.53;;;3.33;;
13202;SDS011;6666;51.626;7.530;2023-04-24T11:44:51;11.45;;;3.40;;
13202;SDS011;6666;51.626;7.530;2023-04-24T11:47:27;8.48;;;3.55;;
13202;SDS011;6666;51.626;7.530;2023-04-24T11:49:56;9.50;;;3.50;;
13202;SDS011;6666;51.626;7.530;2023-04-24T11:52:26;5.35;;;2.92;;
13202;SDS011;6666;51.626;7.530;2023-04-24T11:54:54;6.38;;;3.35;;
13202;SDS011;6666;51.626;7.530;2023-04-24T11:57:23;5.57;;;3.35;;
13202;SDS011;6666;51.626;7.530;2023-04-24T11:59:55;9.20;;;3.42;;
13202;SDS011;6666;51.626;7.530;2023-04-24T12:02:24;7.77;;;3.57;;
13202;SDS011;6666;51.626;7.530;2023-04-24T12:04:53;7.90;;;3.38;;
13202;SDS011;6666;51.626;7.530;2023-04-24T12:07:23;7.68;;;3.40;;
13202;SDS011;6666;51.626;7.530;2023-04-24T12:09:55;9.47;;;3.67;;
13202;SDS011;6666;51.626;7.530;2023-04-24T12:12:26;11.90;;;3.97;;
13202;SDS011;6666;51.626;7.530;2023-04-24T12:14:57;9.10;;;3.40;;
13202;SDS011;6666;51.626;7.530;2023-04-24T12:17:27;12.05;;;3.80;;
13202;SDS011;6666;51.626;7.530;2023-04-24T12:19:57;8.80;;;3.70;;
13202;SDS011;6666;51.626;7.530;2023-04-24T12:22:27;12.00;;;3.30;;
13202;SDS011;6666;51.626;7.530;2023-04-24T12:24:59;12.88;;;4.22;;
13202;SDS011;6666;51.626;7.530;2023-04-24T12:27:29;8.27;;;3.85;;
13202;SDS011;6666;51.626;7.530;2023-04-24T12:30:01;11.05;;;3.97;;
13202;SDS011;6666;51.626;7.530;2023-04-24T12:32:31;6.40;;;3.67;;
13202;SDS011;6666;51.626;7.530;2023-04-24T12:34:59;6.18;;;3.90;;
13202;SDS011;6666;51.626;7.530;2023-04-24T12:37:32;11.70;;;3.90;;
13202;SDS011;6666;51.626;7.530;2023-04-24T12:40:04;12.63;;;3.63;;
13202;SDS011;6666;51.626;7.530;2023-04-24T12:42:34;9.63;;;3.63;;
13202;SDS011;6666;51.626;7.530;2023-04-24T12:45:15;8.30;;;3.50;;
13202;SDS011;6666;51.626;7.530;2023-04-24T12:47:44;9.18;;;3.40;;
13202;SDS011;6666;51.626;7.530;2023-04-24T12:50:14;10.50;;;3.30;;
13202;SDS011;6666;51.626;7.530;2023-04-24T12:52:43;5.60;;;2.55;;
13202;SDS011;6666;51.626;7.530;2023-04-24T12:55:11;7.90;;;2.53;;
13202;SDS011;6666;51.626;7.530;2023-04-24T12:57:40;5.68;;;2.30;;
13202;SDS011;6666;51.626;7.530;2023-04-24T13:00:08;5.53;;;2.53;;
13202;SDS011;6666;51.626;7.530;2023-04-24T13:02:38;5.68;;;2.50;;
13202;SDS011;6666;51.626;7.530;2023-04-24T13:05:07;5.95;;;2.75;;
13202;SDS011;6666;51.626;7.530;2023-04-24T13:07:37;6.70;;;2.67;;
13202;SDS011;6666;51.626;7.530;2023-04-24T13:10:06;5.75;;;2.33;;
13202;SDS011;6666;51.626;7.530;2023-04-24T13:12:35;5.13;;;2.47;;
13202;SDS011;6666;51.626;7.530;2023-04-24T13:15:05;7.07;;;2.58;;
13202;SDS011;6666;51.626;7.530;2023-04-24T13:17:34;3.63;;;2.20;;
13202;SDS011;6666;51.626;7.530;2023-04-24T13:20:04;4.75;;;2.30;;
13202;SDS011;6666;51.626;7.530;2023-04-24T13:22:33;3.40;;;2.10;;
13202;SDS011;6666;51.626;7.530;2023-04-24T13:25:01;4.97;;;2.55;;
13202;SDS011;6666;51.626;7.530;2023-04-24T13:27:32;4.05;;;2.20;;
13202;SDS011;6666;51.626;7.530;2023-04-24T13:30:01;4.57;;;2.10;;
13202;SDS011;6666;51.626;7.530;2023-04-24T13:32:29;5.60;;;2.22;;
13202;SDS011;6666;51.626;7.530;2023-04-24T13:34:57;6.75;;;2.35;;
13202;SDS011;6666;51.626;7.530;2023-04-24T13:37:27;2.30;;;2.00;;
13202;SDS011;6666;51.626;7.530;2023-04-24T13:39:55;5.23;;;2.80;;
13202;SDS011;6666;51.626;7.530;2023-04-24T13:42:23;7.73;;;2.30;;
13202;SDS011;6666;51.626;7.530;2023-04-24T13:44:52;5.25;;;2.30;;
13202;SDS011;6666;51.626;7.530;2023-04-24T13:47:20;6.60;;;2.60;;
13202;SDS011;6666;51.626;7.530;2023-04-24T13:49:48;4.25;;;2.20;;
13202;SDS011;6666;51.626;7.530;2023-04-24T13:52:16;6.80;;;2.30;;
13202;SDS011;6666;51.626;7.530;2023-04-24T13:54:46;2.80;;;2.00;;
13202;SDS011;6666;51.626;7.530;2023-04-24T13:57:14;5.40;;;2.10;;
13202;SDS011;6666;51.626;7.530;2023-04-24T13:59:43;4.70;;;2.00;;
13202;SDS011;6666;51.626;7.530;2023-04-24T14:02:11;5.80;;;2.30;;
13202;SDS011;6666;51.626;7.530;2023-04-24T14:04:40;12.90;;;5.88;;
13202;SDS011;6666;51.626;7.530;2023-04-24T14:07:08;5.97;;;3.90;;
13202;SDS011;6666;51.626;7.530;2023-04-24T14:09:36;10.98;;;5.72;;
13202;SDS011;6666;51.626;7.530;2023-04-24T14:12:06;12.35;;;6.50;;
13202;SDS011;6666;51.626;7.530;2023-04-24T14:14:34;8.25;;;3.70;;
13202;SDS011;6666;51.626;7.530;2023-04-24T14:17:02;7.95;;;3.90;;
13202;SDS011;6666;51.626;7.530;2023-04-24T14:19:31;4.05;;;2.80;;
13202;SDS011;6666;51.626;7.530;2023-04-24T14:22:00;8.63;;;3.13;;
13202;SDS011;6666;51.626;7.530;2023-04-24T14:24:28;5.53;;;3.20;;
13202;SDS011;6666;51.626;7.530;2023-04-24T14:26:56;6.50;;;3.88;;
13202;SDS011;6666;51.626;7.530;2023-04-24T14:29:26;3.93;;;3.13;;
13202;SDS011;6666;51.626;7.530;2023-04-24T14:31:54;7.95;;;3.40;;
13202;SDS011;6666;51.626;7.530;2023-04-24T14:34:23;5.00;;;2.60;;
13202;SDS011;6666;51.626;7.530;2023-04-24T14:36:52;4.32;;;2.40;;
13202;SDS011;6666;51.626;7.530;2023-04-24T14:39:20;4.10;;;2.50;;
13202;SDS011;6666;51.626;7.530;2023-04-24T14:41:49;4.60;;;2.50;;
13202;SDS011;6666;51.626;7.530;2023-04-24T14:44:17;9.90;;;3.20;;
13202;SDS011;6666;51.626;7.530;2023-04-24T14:46:47;12.40;;;6.22;;
13202;SDS011;6666;51.626;7.530;2023-04-24T14:49:16;19.40;;;10.00;;
13202;SDS011;6666;51.626;7.530;2023-04-24T14:51:44;7.17;;;3.53;;
13202;SDS011;6666;51.626;7.530;2023-04-24T14:54:12;4.68;;;2.60;;
13202;SDS011;6666;51.626;7.530;2023-04-24T14:56:40;17.00;;;8.67;;
13202;SDS011;6666;51.626;7.530;2023-04-24T14:59:10;6.95;;;4.03;;
13202;SDS011;6666;51.626;7.530;2023-04-24T15:01:38;5.40;;;2.53;;
13202;SDS011;6666;51.626;7.530;2023-04-24T15:04:08;4.43;;;2.55;;
13202;SDS011;6666;51.626;7.530;2023-04-24T15:06:37;3.22;;;2.10;;
13202;SDS011;6666;51.626;7.530;2023-04-24T15:09:05;3.60;;;3.00;;
13202;SDS011;6666;51.626;7.530;2023-04-24T15:11:33;11.82;;;7.72;;
13202;SDS011;6666;51.626;7.530;2023-04-24T15:14:01;7.22;;;3.25;;
13202;SDS011;6666;51.626;7.530;2023-04-24T15:16:30;5.68;;;2.60;;
13202;SDS011;6666;51.626;7.530;2023-04-24T15:18:59;6.43;;;2.65;;
13202;SDS011;6666;51.626;7.530;2023-04-24T15:21:29;3.92;;;3.03;;